createdAt,value
2023-04-12T00:02:21.160Z,58.40
2023-04-12T00:04:55.561Z,58.40
2023-04-12T00:07:25.745Z,58.40
2023-04-12T00:09:53.430Z,58.30
2023-04-12T00:12:20.814Z,58.40
2023-04-12T00:14:47.981Z,58.60
2023-04-12T00:17:15.153Z,58.40
2023-04-12T00:19:42.213Z,58.60
2023-04-12T00:22:10.088Z,58.80
2023-04-12T00:24:40.821Z,58.60
2023-04-12T00:27:10.591Z,58.60
2023-04-12T00:29:37.561Z,58.80
2023-04-12T00:32:06.024Z,58.90
2023-04-12T00:34:33.034Z,59.10
2023-04-12T00:37:01.332Z,59.20
2023-04-12T00:39:28.484Z,59.20
2023-04-12T00:41:58.040Z,59.00
2023-04-12T00:44:25.018Z,59.00
2023-04-12T00:46:52.280Z,58.90
2023-04-12T00:49:19.812Z,59.00
2023-04-12T00:51:47.928Z,59.10
2023-04-12T00:54:18.175Z,59.10
2023-04-12T00:56:47.337Z,58.90
2023-04-12T00:59:14.564Z,58.90
2023-04-12T01:01:41.964Z,58.90
2023-04-12T01:04:09.383Z,58.90
2023-04-12T01:06:47.155Z,59.10
2023-04-12T01:09:59.412Z,59.10
2023-04-12T01:12:46.957Z,59.10
2023-04-12T01:15:16.310Z,59.10
2023-04-12T01:18:00.346Z,59.10
2023-04-12T01:20:33.701Z,59.10
2023-04-12T01:23:19.720Z,59.10
2023-04-12T01:26:22.406Z,58.90
2023-04-12T01:28:53.257Z,59.10
2023-04-12T01:31:21.877Z,59.20
2023-04-12T01:33:53.151Z,59.00
2023-04-12T01:36:23.385Z,58.90
2023-04-12T01:38:51.881Z,59.00
2023-04-12T01:41:19.047Z,59.10
2023-04-12T01:43:47.936Z,58.90
2023-04-12T01:46:19.822Z,58.90
2023-04-12T01:48:51.827Z,58.80
2023-04-12T01:51:56.687Z,58.70
2023-04-12T01:54:28.005Z,58.90
2023-04-12T01:56:59.700Z,59.00
2023-04-12T01:59:38.368Z,59.20
2023-04-12T02:02:06.499Z,59.10
2023-04-12T02:04:35.896Z,59.10
2023-04-12T02:07:03.905Z,59.10
2023-04-12T02:09:36.150Z,59.20
2023-04-12T02:12:07.841Z,59.30
2023-04-12T02:14:37.023Z,59.20
2023-04-12T02:17:05.444Z,59.20
2023-04-12T02:19:33.096Z,59.40
2023-04-12T02:22:01.172Z,59.50
2023-04-12T02:24:29.475Z,59.60
2023-04-12T02:26:58.141Z,59.60
2023-04-12T02:29:25.938Z,59.50
2023-04-12T02:31:54.915Z,59.60
2023-04-12T02:34:25.340Z,59.60
2023-04-12T02:37:00.371Z,59.50
2023-04-12T02:39:29.313Z,60.20
2023-04-12T02:41:57.827Z,59.60
2023-04-12T02:44:24.807Z,59.60
2023-04-12T02:47:07.936Z,59.50
2023-04-12T02:49:36.496Z,59.50
2023-04-12T02:52:05.054Z,60.40
2023-04-12T02:54:42.053Z,59.80
2023-04-12T02:57:16.300Z,59.80
2023-04-12T02:59:46.804Z,59.70
2023-04-12T03:02:38.840Z,59.70
2023-04-12T03:05:09.397Z,59.80
2023-04-12T03:07:42.420Z,59.80
2023-04-12T03:10:14.335Z,59.70
2023-04-12T03:12:46.925Z,60.50
2023-04-12T03:15:18.780Z,59.60
2023-04-12T03:17:48.593Z,59.70
2023-04-12T03:20:21.181Z,59.60
2023-04-12T03:22:57.251Z,59.50
2023-04-12T03:25:24.594Z,59.40
2023-04-12T03:27:56.927Z,59.30
2023-04-12T03:30:32.008Z,59.30
2023-04-12T03:32:58.995Z,59.70
2023-04-12T03:35:27.105Z,59.50
2023-04-12T03:37:54.201Z,59.50
2023-04-12T03:40:21.564Z,59.50
2023-04-12T03:43:01.771Z,59.40
2023-04-12T03:45:30.149Z,59.40
2023-04-12T03:48:00.208Z,59.60
2023-04-12T03:50:29.711Z,59.80
2023-04-12T03:52:57.952Z,59.90
2023-04-12T03:55:30.878Z,59.90
2023-04-12T03:58:00.592Z,59.80
2023-04-12T04:00:36.830Z,59.90
2023-04-12T04:03:09.412Z,59.90
2023-04-12T04:05:45.392Z,59.90
2023-04-12T04:08:14.012Z,59.90
2023-04-12T04:10:50.339Z,60.00
2023-04-12T04:13:18.183Z,60.00
2023-04-12T04:15:45.814Z,60.10
2023-04-12T04:18:15.186Z,60.00
2023-04-12T04:20:42.656Z,60.00
2023-04-12T04:23:10.524Z,60.20
2023-04-12T04:25:41.896Z,60.00
2023-04-12T04:28:12.046Z,60.10
2023-04-12T04:30:40.791Z,60.20
2023-04-12T04:33:13.737Z,60.00
2023-04-12T04:35:41.684Z,60.00
2023-04-12T04:38:28.395Z,60.10
2023-04-12T04:41:06.882Z,60.20
2023-04-12T04:43:48.854Z,60.00
2023-04-12T04:46:21.319Z,60.10
2023-04-12T04:48:50.225Z,60.50
2023-04-12T04:51:17.636Z,60.50
2023-04-12T04:53:45.890Z,60.60
2023-04-12T04:56:14.720Z,60.70
2023-04-12T04:58:43.771Z,60.80
2023-04-12T05:01:17.135Z,61.10
2023-04-12T05:03:50.043Z,61.00
2023-04-12T05:06:19.034Z,60.90
2023-04-12T05:08:46.830Z,61.00
2023-04-12T05:11:16.381Z,61.10
2023-04-12T05:13:47.535Z,61.00
2023-04-12T05:16:15.724Z,61.00
2023-04-12T05:18:42.789Z,61.00
2023-04-12T05:21:09.767Z,60.90
2023-04-12T05:23:38.014Z,61.00
2023-04-12T05:26:06.806Z,62.10
2023-04-12T05:28:34.399Z,60.90
2023-04-12T05:31:01.882Z,61.10
2023-04-12T05:33:36.880Z,61.30
2023-04-12T05:36:04.901Z,61.10
2023-04-12T05:38:32.102Z,60.80
2023-04-12T05:41:04.914Z,60.70
2023-04-12T05:43:33.843Z,60.60
2023-04-12T05:46:01.922Z,60.40
2023-04-12T05:48:29.332Z,60.40
2023-04-12T05:51:02.487Z,60.30
2023-04-12T05:53:33.743Z,60.30
2023-04-12T05:56:03.732Z,60.30
2023-04-12T05:58:30.984Z,60.60
2023-04-12T06:00:59.343Z,60.50
2023-04-12T06:03:30.761Z,60.10
2023-04-12T06:06:06.407Z,60.00
2023-04-12T06:08:36.128Z,59.90
2023-04-12T06:11:08.163Z,59.80
2023-04-12T06:13:35.484Z,59.70
2023-04-12T06:16:03.887Z,59.70
2023-04-12T06:18:31.232Z,59.50
2023-04-12T06:20:58.412Z,59.20
2023-04-12T06:23:25.871Z,59.00
2023-04-12T06:25:54.581Z,58.90
2023-04-12T06:28:22.186Z,58.90
2023-04-12T06:30:51.627Z,58.70
2023-04-12T06:33:18.794Z,58.70
2023-04-12T06:35:46.532Z,58.60
2023-04-12T06:38:13.927Z,58.70
2023-04-12T06:40:41.165Z,59.10
2023-04-12T06:43:08.321Z,59.00
2023-04-12T06:45:35.379Z,58.20
2023-04-12T06:48:02.486Z,58.40
2023-04-12T06:50:29.555Z,57.80
2023-04-12T06:52:56.669Z,57.10
2023-04-12T06:55:24.062Z,56.50
2023-04-12T06:57:53.279Z,56.20
2023-04-12T07:00:21.020Z,53.50
2023-04-12T07:02:48.407Z,53.00
2023-04-12T07:05:16.355Z,52.40
2023-04-12T07:07:44.227Z,50.50
2023-04-12T07:10:12.950Z,49.10
2023-04-12T07:12:40.569Z,48.80
2023-04-12T07:15:08.761Z,45.80
2023-04-12T07:17:36.048Z,39.80
2023-04-12T07:20:05.070Z,41.00
2023-04-12T07:22:32.159Z,38.90
2023-04-12T07:25:00.371Z,38.90
2023-04-12T07:27:27.468Z,37.70
2023-04-12T07:29:54.711Z,39.10
2023-04-12T07:32:21.827Z,38.70
2023-04-12T07:34:48.769Z,39.50
2023-04-12T07:37:17.972Z,38.00
2023-04-12T07:39:45.037Z,35.90
2023-04-12T07:42:12.147Z,34.70
2023-04-12T07:44:39.629Z,35.70
2023-04-12T07:47:08.077Z,37.00
2023-04-12T07:49:35.201Z,33.70
2023-04-12T07:52:02.319Z,32.90
2023-04-12T07:54:30.744Z,30.70
2023-04-12T07:56:59.611Z,31.10
2023-04-12T07:59:26.743Z,30.50
2023-04-12T08:01:53.844Z,31.10
2023-04-12T08:04:21.461Z,30.90
2023-04-12T08:06:48.631Z,32.40
2023-04-12T08:09:15.914Z,32.10
2023-04-12T08:11:42.912Z,31.70
2023-04-12T08:14:10.632Z,31.30
2023-04-12T08:16:37.609Z,29.00
2023-04-12T08:19:04.745Z,29.70
2023-04-12T08:21:31.911Z,28.70
2023-04-12T08:23:59.252Z,28.50
2023-04-12T08:26:31.315Z,28.00
2023-04-12T08:28:59.402Z,27.70
2023-04-12T08:31:27.155Z,27.80
2023-04-12T08:33:54.341Z,28.70
2023-04-12T08:36:21.555Z,28.10
2023-04-12T08:38:52.716Z,27.30
2023-04-12T08:41:20.286Z,26.80
2023-04-12T08:43:48.912Z,27.50
2023-04-12T08:46:17.147Z,27.70
2023-04-12T08:48:46.607Z,28.60
2023-04-12T08:51:17.345Z,28.60
2023-04-12T08:53:44.810Z,28.20
2023-04-12T08:56:17.749Z,28.60
2023-04-12T08:58:49.261Z,28.80
2023-04-12T09:01:17.765Z,28.90
2023-04-12T09:03:46.418Z,29.10
2023-04-12T09:06:13.895Z,29.60
2023-04-12T09:08:57.366Z,28.80
2023-04-12T09:11:28.351Z,28.10
2023-04-12T09:13:58.814Z,27.80
2023-04-12T09:16:42.299Z,27.40
2023-04-12T09:19:09.762Z,27.00
2023-04-12T09:21:37.794Z,27.70
2023-04-12T09:24:12.350Z,27.60
2023-04-12T09:26:41.335Z,28.20
2023-04-12T09:29:24.263Z,27.80
2023-04-12T09:32:05.700Z,27.20
2023-04-12T09:34:37.549Z,27.30
2023-04-12T09:37:16.270Z,27.20
2023-04-12T09:39:45.361Z,27.50
2023-04-12T09:42:25.718Z,27.80
2023-04-12T09:45:01.823Z,27.70
2023-04-12T09:47:39.606Z,27.10
2023-04-12T09:50:08.442Z,27.40
2023-04-12T09:52:40.478Z,27.60
2023-04-12T09:55:11.554Z,27.90
2023-04-12T09:57:41.053Z,28.30
2023-04-12T10:00:14.776Z,27.90
2023-04-12T10:02:45.099Z,27.40
2023-04-12T10:05:17.184Z,27.80
2023-04-12T10:07:46.496Z,27.20
2023-04-12T10:10:16.722Z,26.90
2023-04-12T10:12:46.624Z,26.50
2023-04-12T10:15:17.869Z,26.20
2023-04-12T10:17:51.466Z,26.50
2023-04-12T10:20:20.143Z,26.30
2023-04-12T10:22:52.360Z,26.50
2023-04-12T10:25:24.065Z,26.70
2023-04-12T10:27:51.671Z,25.70
2023-04-12T10:30:28.833Z,26.60
2023-04-12T10:33:05.494Z,26.50
2023-04-12T10:35:52.800Z,26.00
2023-04-12T10:38:21.710Z,26.70
2023-04-12T10:41:15.788Z,26.70
2023-04-12T10:43:47.348Z,26.50
2023-04-12T10:46:39.967Z,26.10
2023-04-12T10:49:16.502Z,26.90
2023-04-12T10:52:12.887Z,27.00
2023-04-12T10:54:40.219Z,26.80
2023-04-12T10:57:40.790Z,27.10
2023-04-12T11:00:09.728Z,27.40
2023-04-12T11:03:12.722Z,27.80
2023-04-12T11:06:16.330Z,27.50
2023-04-12T11:09:30.300Z,27.80
2023-04-12T11:12:09.577Z,27.50
2023-04-12T11:14:44.442Z,27.60
2023-04-12T11:17:15.087Z,27.30
2023-04-12T11:19:57.252Z,27.40
2023-04-12T11:22:27.727Z,27.20
2023-04-12T11:25:00.321Z,27.20
2023-04-12T11:27:29.360Z,27.50
2023-04-12T11:29:59.094Z,28.00
2023-04-12T11:32:30.779Z,27.70
2023-04-12T11:34:59.063Z,28.30
2023-04-12T11:37:31.745Z,27.60
2023-04-12T11:40:00.108Z,27.90
2023-04-12T11:42:29.199Z,28.30
2023-04-12T11:44:59.862Z,28.80
2023-04-12T11:47:29.271Z,28.70
2023-04-12T11:49:59.909Z,29.10
2023-04-12T11:52:32.537Z,29.20
2023-04-12T11:55:04.916Z,29.60
2023-04-12T11:57:32.459Z,29.10
2023-04-12T12:00:00.507Z,29.50
2023-04-12T12:02:32.850Z,29.50
2023-04-12T12:05:02.444Z,29.10
2023-04-12T12:07:30.778Z,29.60
2023-04-12T12:09:58.381Z,30.00
2023-04-12T12:12:25.711Z,30.00
2023-04-12T12:14:54.367Z,30.00
2023-04-12T12:17:21.338Z,30.20
2023-04-12T12:19:48.571Z,30.40
2023-04-12T12:22:22.874Z,30.60
2023-04-12T12:24:58.517Z,30.50
2023-04-12T12:27:33.892Z,31.10
2023-04-12T12:30:02.744Z,31.70
2023-04-12T12:32:35.763Z,32.10
2023-04-12T12:35:09.493Z,32.50
2023-04-12T12:37:37.207Z,32.80
2023-04-12T12:40:17.255Z,33.60
2023-04-12T12:42:50.394Z,33.60
2023-04-12T12:45:20.283Z,33.80
2023-04-12T12:48:02.978Z,33.40
2023-04-12T12:50:35.179Z,33.40
2023-04-12T12:53:03.811Z,33.40
2023-04-12T12:55:32.474Z,33.40
2023-04-12T13:00:30.406Z,33.60
2023-04-12T13:02:58.722Z,33.70
2023-04-12T13:05:26.162Z,34.40
2023-04-12T13:07:53.184Z,34.20
2023-04-12T13:10:20.556Z,34.30
2023-04-12T13:12:47.661Z,34.50
2023-04-12T13:15:22.144Z,34.20
2023-04-12T13:17:54.675Z,34.10
2023-04-12T13:20:25.468Z,34.10
2023-04-12T13:22:54.070Z,33.90
2023-04-12T13:25:24.595Z,33.90
2023-04-12T13:27:52.617Z,34.20
2023-04-12T13:30:20.282Z,34.50
2023-04-12T13:32:47.532Z,34.70
2023-04-12T13:35:14.812Z,34.80
2023-04-12T13:37:42.165Z,34.80
2023-04-12T13:40:09.568Z,35.00
2023-04-12T13:42:36.494Z,35.20
2023-04-12T13:45:04.596Z,35.20
2023-04-12T13:47:33.980Z,35.30
2023-04-12T13:50:01.563Z,35.50
2023-04-12T13:52:28.819Z,35.50
2023-04-12T13:54:56.429Z,35.70
2023-04-12T13:57:23.386Z,35.60
2023-04-12T13:59:50.343Z,35.50
2023-04-12T14:02:17.306Z,35.40
2023-04-12T14:04:55.267Z,35.60
2023-04-12T14:07:22.896Z,35.40
2023-04-12T14:09:50.275Z,35.50
2023-04-12T14:12:17.555Z,35.90
2023-04-12T14:14:44.541Z,35.60
2023-04-12T14:17:11.757Z,35.90
2023-04-12T14:19:38.770Z,36.10
2023-04-12T14:22:08.138Z,36.10
2023-04-12T14:24:35.964Z,36.40
2023-04-12T14:27:04.417Z,36.50
2023-04-12T14:29:32.059Z,36.80
2023-04-12T14:31:59.157Z,36.70
2023-04-12T14:34:26.168Z,36.90
2023-04-12T14:36:54.945Z,37.10
2023-04-12T14:39:24.452Z,37.30
2023-04-12T14:41:51.433Z,37.50
2023-04-12T14:44:20.777Z,37.30
2023-04-12T14:46:48.507Z,37.30
2023-04-12T14:49:15.601Z,37.30
2023-04-12T14:51:43.831Z,37.50
2023-04-12T14:54:11.063Z,37.70
2023-04-12T14:56:45.520Z,37.90
2023-04-12T14:59:17.637Z,38.20
2023-04-12T15:01:45.724Z,38.30
2023-04-12T15:04:13.965Z,38.50
2023-04-12T15:06:45.036Z,38.80
2023-04-12T15:09:14.320Z,38.70
2023-04-12T15:11:47.043Z,38.80
2023-04-12T15:14:20.065Z,39.00
2023-04-12T15:16:49.274Z,39.40
2023-04-12T15:19:20.911Z,39.80
2023-04-12T15:21:55.398Z,41.20
2023-04-12T15:24:23.741Z,41.50
2023-04-12T15:26:53.054Z,42.20
2023-04-12T15:29:22.975Z,43.60
2023-04-12T15:31:50.856Z,44.90
2023-04-12T15:34:18.024Z,45.40
2023-04-12T15:36:46.116Z,46.20
2023-04-12T15:39:15.161Z,46.60
2023-04-12T15:41:44.767Z,47.10
2023-04-12T15:44:13.497Z,47.60
2023-04-12T15:46:41.856Z,48.10
2023-04-12T15:49:11.177Z,49.00
2023-04-12T15:51:38.913Z,49.30
2023-04-12T15:54:06.354Z,49.70
2023-04-12T15:56:34.591Z,49.80
2023-04-12T15:59:01.879Z,50.10
2023-04-12T16:01:29.175Z,50.70
2023-04-12T16:03:56.477Z,50.60
2023-04-12T16:06:26.281Z,50.70
2023-04-12T16:08:59.872Z,51.20
2023-04-12T16:11:27.154Z,51.10
2023-04-12T16:13:54.993Z,52.00
2023-04-12T16:16:23.415Z,52.30
2023-04-12T16:18:52.871Z,52.90
2023-04-12T16:21:22.281Z,53.20
2023-04-12T16:23:50.933Z,53.60
2023-04-12T16:26:23.493Z,53.60
2023-04-12T16:28:58.017Z,53.80
2023-04-12T16:31:27.203Z,54.10
2023-04-12T16:33:54.780Z,54.70
2023-04-12T16:36:26.248Z,55.00
2023-04-12T16:38:59.762Z,54.60
2023-04-12T16:41:27.106Z,55.30
2023-04-12T16:43:56.082Z,54.70
2023-04-12T16:46:23.651Z,55.20
2023-04-12T16:48:50.707Z,55.50
2023-04-12T16:51:17.721Z,55.20
2023-04-12T16:53:44.721Z,55.40
2023-04-12T16:56:11.914Z,55.40
2023-04-12T16:58:38.904Z,56.10
2023-04-12T17:01:07.320Z,55.60
2023-04-12T17:03:35.216Z,56.70
2023-04-12T17:06:02.380Z,56.40
2023-04-12T17:08:30.020Z,56.50
2023-04-12T17:10:59.082Z,56.10
2023-04-12T17:13:26.771Z,56.60
2023-04-12T17:15:54.209Z,56.40
2023-04-12T17:18:21.504Z,56.70
2023-04-12T17:20:49.663Z,57.20
2023-04-12T17:23:16.770Z,57.60
2023-04-12T17:25:44.190Z,58.50
2023-04-12T17:28:11.528Z,57.90
2023-04-12T17:30:38.633Z,57.30
2023-04-12T17:33:07.642Z,57.20
2023-04-12T17:35:37.457Z,57.90
2023-04-12T17:38:05.056Z,57.70
2023-04-12T17:40:32.017Z,57.70
2023-04-12T17:43:02.784Z,57.50
2023-04-12T17:45:30.379Z,57.90
2023-04-12T17:47:57.456Z,57.30
2023-04-12T17:50:24.634Z,57.90
2023-04-12T17:52:51.941Z,57.80
2023-04-12T17:55:23.550Z,57.50
2023-04-12T17:57:50.658Z,57.50
2023-04-12T18:00:19.073Z,57.60
2023-04-12T18:02:46.909Z,57.10
2023-04-12T18:05:14.076Z,57.50
2023-04-12T18:07:42.644Z,57.70
2023-04-12T18:10:12.746Z,57.30
2023-04-12T18:12:40.971Z,57.50
2023-04-12T18:15:08.729Z,57.20
2023-04-12T18:17:38.405Z,57.20
2023-04-12T18:20:12.561Z,57.20
2023-04-12T18:22:44.152Z,57.00
2023-04-12T18:25:12.402Z,57.40
2023-04-12T18:27:39.410Z,58.20
2023-04-12T18:30:07.623Z,57.90
2023-04-12T18:32:34.677Z,58.20
2023-04-12T18:35:02.652Z,58.20
2023-04-12T18:37:29.674Z,58.10
2023-04-12T18:39:56.720Z,58.20
2023-04-12T18:42:23.695Z,58.40
2023-04-12T18:44:51.448Z,58.50
2023-04-12T18:47:19.812Z,58.30
2023-04-12T18:49:46.934Z,58.70
2023-04-12T18:52:13.906Z,58.90
2023-04-12T18:54:41.082Z,59.20
2023-04-12T18:57:11.790Z,59.40
2023-04-12T18:59:42.015Z,59.20
2023-04-12T19:02:09.381Z,59.30
2023-04-12T19:04:37.087Z,59.20
2023-04-12T19:07:05.476Z,59.50
2023-04-12T19:09:33.202Z,59.60
2023-04-12T19:12:02.128Z,59.50
2023-04-12T19:14:30.666Z,59.70
2023-04-12T19:16:58.374Z,59.50
2023-04-12T19:19:25.747Z,59.70
2023-04-12T19:21:52.737Z,59.60
2023-04-12T19:24:19.824Z,59.70
2023-04-12T19:26:47.381Z,59.80
2023-04-12T19:29:19.728Z,59.80
2023-04-12T19:31:52.092Z,59.50
2023-04-12T19:34:19.335Z,59.50
2023-04-12T19:36:47.694Z,59.50
2023-04-12T19:39:15.797Z,59.20
2023-04-12T19:41:42.865Z,59.20
2023-04-12T19:44:09.992Z,59.30
2023-04-12T19:46:39.058Z,59.20
2023-04-12T19:49:06.423Z,59.30
2023-04-12T19:51:34.722Z,59.30
2023-04-12T19:54:01.782Z,59.20
2023-04-12T19:56:30.026Z,59.20
2023-04-12T19:58:58.140Z,59.10
2023-04-12T20:01:26.901Z,59.20
2023-04-12T20:03:53.967Z,58.90
2023-04-12T20:06:21.635Z,59.00
2023-04-12T20:08:48.823Z,58.70
2023-04-12T20:11:16.170Z,58.60
2023-04-12T20:13:43.084Z,58.70
2023-04-12T20:16:10.164Z,58.70
2023-04-12T20:18:37.140Z,58.30
2023-04-12T20:21:06.096Z,58.50
2023-04-12T20:23:33.103Z,58.30
2023-04-12T20:26:00.610Z,58.50
2023-04-12T20:28:28.891Z,58.40
2023-04-12T20:30:55.935Z,58.30
2023-04-12T20:33:23.555Z,58.20
2023-04-12T20:35:51.449Z,58.40
2023-04-12T20:38:18.535Z,58.40
2023-04-12T20:40:46.372Z,58.30
2023-04-12T20:43:13.364Z,58.70
2023-04-12T20:45:40.503Z,58.60
2023-04-12T20:48:07.495Z,58.80
2023-04-12T20:50:38.619Z,58.90
2023-04-12T20:53:06.017Z,58.90
2023-04-12T20:55:34.950Z,58.80
2023-04-12T20:58:03.974Z,58.50
2023-04-12T21:00:32.800Z,58.60
2023-04-12T21:03:02.816Z,58.60
2023-04-12T21:05:33.861Z,58.50
2023-04-12T21:08:01.245Z,58.60
2023-04-12T21:10:29.391Z,58.70
2023-04-12T21:12:57.112Z,58.60
2023-04-12T21:15:24.398Z,58.50
2023-04-12T21:17:52.435Z,58.60
2023-04-12T21:20:19.932Z,58.70
2023-04-12T21:22:47.948Z,58.70
2023-04-12T21:25:16.762Z,58.60
2023-04-12T21:27:49.087Z,58.80
2023-04-12T21:30:16.289Z,58.40
2023-04-12T21:32:46.270Z,58.50
2023-04-12T21:35:16.387Z,58.60
2023-04-12T21:37:43.532Z,58.70
2023-04-12T21:40:12.309Z,58.90
2023-04-12T21:42:41.353Z,59.00
2023-04-12T21:45:09.656Z,58.90
2023-04-12T21:47:39.065Z,59.00
2023-04-12T21:50:08.681Z,59.00
2023-04-12T21:52:36.311Z,58.90
2023-04-12T21:55:07.113Z,59.00
2023-04-12T21:57:34.916Z,58.90
2023-04-12T22:00:05.978Z,59.10
2023-04-12T22:02:42.622Z,59.00
2023-04-12T22:05:09.989Z,59.10
2023-04-12T22:07:41.061Z,59.10
2023-04-12T22:10:09.742Z,59.20
2023-04-12T22:12:38.220Z,59.10
2023-04-12T22:15:08.645Z,59.20
2023-04-12T22:17:35.629Z,59.10
2023-04-12T22:20:03.908Z,59.10
2023-04-12T22:22:31.966Z,59.10
2023-04-12T22:25:00.319Z,59.20
2023-04-12T22:27:27.370Z,59.20
2023-04-12T22:29:54.301Z,59.30
2023-04-12T22:32:21.461Z,59.20
2023-04-12T22:34:57.778Z,59.10
2023-04-12T22:37:41.514Z,59.20
2023-04-12T22:40:12.350Z,59.10
2023-04-12T22:42:48.484Z,59.30
2023-04-12T22:45:17.621Z,59.40
2023-04-12T22:47:45.825Z,59.40
2023-04-12T22:50:13.310Z,59.40
2023-04-12T22:52:42.046Z,59.40
2023-04-12T22:55:14.442Z,59.50
2023-04-12T22:57:42.151Z,59.60
2023-04-12T23:00:15.758Z,59.40
2023-04-12T23:02:44.125Z,59.50
2023-04-12T23:05:12.863Z,59.70
2023-04-12T23:07:41.292Z,59.70
2023-04-12T23:10:10.849Z,59.80
2023-04-12T23:12:38.996Z,59.80
2023-04-12T23:15:06.505Z,59.80
2023-04-12T23:17:33.988Z,60.00
2023-04-12T23:20:05.548Z,59.70
2023-04-12T23:22:48.439Z,59.90
2023-04-12T23:25:22.114Z,60.00
2023-04-12T23:27:49.681Z,60.10
2023-04-12T23:30:18.099Z,60.00
2023-04-12T23:32:46.947Z,60.10
2023-04-12T23:35:14.565Z,60.20
2023-04-12T23:37:42.727Z,60.10
2023-04-12T23:40:14.273Z,60.00
2023-04-12T23:42:43.821Z,60.40
2023-04-12T23:45:12.106Z,60.70
2023-04-12T23:47:39.989Z,61.00
2023-04-12T23:50:08.528Z,61.50
2023-04-12T23:52:35.935Z,61.60
2023-04-12T23:55:03.418Z,61.90
2023-04-12T23:57:30.683Z,62.40
2023-04-12T23:59:59.691Z,62.50
